createdAt,value
2022-12-18T00:01:18.333Z,2.26
2022-12-18T00:03:46.684Z,2.52
2022-12-18T00:06:14.820Z,2.52
2022-12-18T00:08:42.580Z,2.46
2022-12-18T00:11:12.753Z,2.48
2022-12-18T00:13:41.261Z,2.48
2022-12-18T00:16:10.774Z,2.47
2022-12-18T00:18:40.739Z,2.47
2022-12-18T00:21:12.344Z,2.46
2022-12-18T00:23:41.158Z,2.44
2022-12-18T00:26:10.775Z,2.49
2022-12-18T00:28:38.635Z,2.21
2022-12-18T00:31:07.262Z,2.41
2022-12-18T00:33:35.272Z,2.48
2022-12-18T00:36:04.719Z,2.48
2022-12-18T00:38:32.465Z,2.45
2022-12-18T00:41:00.163Z,2.49
2022-12-18T00:43:26.992Z,2.43
2022-12-18T00:45:54.825Z,2.46
2022-12-18T00:48:22.780Z,2.44
2022-12-18T00:50:50.504Z,2.44
2022-12-18T00:53:19.782Z,2.41
2022-12-18T00:55:47.521Z,2.40
2022-12-18T00:58:15.875Z,2.40
2022-12-18T01:00:43.643Z,2.41
2022-12-18T01:03:11.759Z,2.39
2022-12-18T01:05:41.057Z,2.40
2022-12-18T01:08:08.815Z,2.42
2022-12-18T01:10:37.860Z,2.44
2022-12-18T01:13:05.683Z,2.43
2022-12-18T01:15:33.305Z,2.43
2022-12-18T01:18:01.073Z,2.41
2022-12-18T01:20:28.700Z,2.41
2022-12-18T01:22:56.506Z,2.41
2022-12-18T01:25:24.161Z,2.42
2022-12-18T01:27:53.330Z,2.44
2022-12-18T01:30:20.972Z,2.43
2022-12-18T01:32:48.869Z,2.43
2022-12-18T01:35:16.629Z,2.43
2022-12-18T01:37:44.422Z,2.39
2022-12-18T01:40:12.433Z,2.30
2022-12-18T01:42:41.281Z,2.31
2022-12-18T01:45:24.246Z,2.29
2022-12-18T01:47:52.748Z,2.05
2022-12-18T01:50:22.180Z,2.29
2022-12-18T01:52:51.782Z,2.26
2022-12-18T01:55:21.441Z,2.28
2022-12-18T01:57:49.341Z,2.28
2022-12-18T02:00:19.960Z,2.27
2022-12-18T02:02:48.163Z,2.26
2022-12-18T02:05:19.609Z,2.18
2022-12-18T02:07:51.806Z,2.17
2022-12-18T02:10:22.328Z,2.16
2022-12-18T02:12:53.701Z,2.20
2022-12-18T02:15:26.103Z,2.22
2022-12-18T02:17:57.307Z,2.26
2022-12-18T02:20:26.983Z,2.06
2022-12-18T02:23:12.002Z,2.32
2022-12-18T02:26:03.681Z,2.33
2022-12-18T02:28:34.127Z,2.34
2022-12-18T02:31:02.998Z,2.35
2022-12-18T02:33:30.861Z,2.36
2022-12-18T02:35:58.815Z,2.39
2022-12-18T02:38:26.578Z,2.35
2022-12-18T02:40:54.379Z,2.21
2022-12-18T02:43:22.266Z,2.40
2022-12-18T02:45:52.979Z,2.19
2022-12-18T02:48:20.941Z,2.38
2022-12-18T02:50:52.906Z,1.92
2022-12-18T02:53:24.003Z,2.39
2022-12-18T02:55:56.664Z,2.39
2022-12-18T02:58:29.305Z,1.04
2022-12-18T03:01:01.051Z,1.43
2022-12-18T03:03:31.207Z,1.46
2022-12-18T03:06:01.066Z,0.56
2022-12-18T03:08:30.001Z,2.43
2022-12-18T03:10:59.820Z,-0.32
2022-12-18T03:13:32.977Z,1.67
2022-12-18T03:16:02.319Z,0.36
2022-12-18T03:18:32.541Z,1.93
2022-12-18T03:21:01.383Z,-0.34
2022-12-18T03:23:31.623Z,2.30
2022-12-18T03:26:05.809Z,2.17
2022-12-18T03:28:36.283Z,1.87
2022-12-18T03:31:05.690Z,2.21
2022-12-18T03:33:34.894Z,-0.52
2022-12-18T03:36:02.813Z,0.76
2022-12-18T03:38:30.933Z,1.72
2022-12-18T03:41:01.494Z,1.44
2022-12-18T03:43:37.082Z,-0.37
2022-12-18T03:46:09.148Z,0.92
2022-12-18T03:48:41.806Z,-0.20
2022-12-18T03:51:11.319Z,-0.80
2022-12-18T03:53:41.947Z,-0.01
2022-12-18T03:56:10.395Z,1.31
2022-12-18T03:58:39.334Z,1.36
2022-12-18T04:01:09.156Z,1.03
2022-12-18T04:03:37.158Z,2.10
2022-12-18T04:06:05.160Z,1.96
2022-12-18T04:08:33.189Z,2.07
2022-12-18T04:11:01.595Z,-0.03
2022-12-18T04:13:31.345Z,2.05
2022-12-18T04:15:59.541Z,2.04
2022-12-18T04:18:29.000Z,-1.28
2022-12-18T04:20:57.192Z,-0.42
2022-12-18T04:23:25.039Z,1.09
2022-12-18T04:25:52.917Z,-0.06
2022-12-18T04:28:21.123Z,1.33
2022-12-18T04:30:51.013Z,1.93
2022-12-18T04:33:18.993Z,-0.11
2022-12-18T04:35:48.460Z,0.75
2022-12-18T04:38:16.526Z,0.18
2022-12-18T04:40:44.405Z,0.27
2022-12-18T04:43:12.400Z,0.50
2022-12-18T04:45:41.152Z,1.27
2022-12-18T04:48:09.081Z,1.02
2022-12-18T04:50:37.212Z,0.98
2022-12-18T04:53:06.478Z,1.67
2022-12-18T04:55:34.528Z,1.64
2022-12-18T04:58:02.380Z,1.01
2022-12-18T05:00:30.325Z,-1.24
2022-12-18T05:02:58.269Z,0.81
2022-12-18T05:05:26.284Z,0.81
2022-12-18T05:07:54.235Z,1.49
2022-12-18T05:10:23.692Z,1.51
2022-12-18T05:13:03.641Z,0.11
2022-12-18T05:15:31.606Z,1.10
2022-12-18T05:17:59.682Z,-0.23
2022-12-18T05:20:28.148Z,1.34
2022-12-18T05:22:56.468Z,-0.26
2022-12-18T05:25:25.993Z,0.96
2022-12-18T05:27:54.035Z,1.13
2022-12-18T05:30:21.959Z,0.51
2022-12-18T05:32:49.837Z,-0.86
2022-12-18T05:35:17.801Z,0.98
2022-12-18T05:37:45.684Z,1.69
2022-12-18T05:40:14.010Z,-0.26
2022-12-18T05:42:43.337Z,-0.07
2022-12-18T05:45:12.105Z,0.19
2022-12-18T05:47:39.967Z,0.91
2022-12-18T05:50:09.627Z,1.51
2022-12-18T05:52:37.527Z,1.01
2022-12-18T05:55:06.147Z,0.38
2022-12-18T05:57:34.013Z,1.55
2022-12-18T06:00:03.991Z,0.44
2022-12-18T06:02:32.078Z,1.72
2022-12-18T06:04:59.951Z,1.13
2022-12-18T06:07:27.864Z,0.26
2022-12-18T06:09:55.782Z,0.31
2022-12-18T06:12:23.587Z,1.10
2022-12-18T06:14:51.525Z,2.31
2022-12-18T06:17:20.873Z,0.25
2022-12-18T06:19:49.056Z,1.66
2022-12-18T06:22:17.953Z,1.71
2022-12-18T06:24:45.793Z,0.27
2022-12-18T06:27:13.773Z,1.02
2022-12-18T06:29:41.607Z,2.47
2022-12-18T06:32:09.477Z,1.74
2022-12-18T06:34:40.842Z,2.60
2022-12-18T06:37:08.699Z,2.66
2022-12-18T06:39:36.604Z,0.22
2022-12-18T06:42:05.337Z,1.88
2022-12-18T06:44:33.338Z,0.81
2022-12-18T06:47:01.289Z,1.07
2022-12-18T06:49:30.718Z,0.13
2022-12-18T06:52:00.415Z,1.69
2022-12-18T06:54:30.432Z,1.41
2022-12-18T06:56:58.397Z,2.40
2022-12-18T06:59:26.248Z,0.70
2022-12-18T07:02:05.711Z,1.93
2022-12-18T07:04:33.676Z,1.34
2022-12-18T07:07:02.954Z,2.58
2022-12-18T07:09:30.799Z,0.27
2022-12-18T07:11:58.675Z,1.87
2022-12-18T07:14:27.262Z,2.44
2022-12-18T07:16:55.181Z,0.87
2022-12-18T07:19:23.019Z,1.42
2022-12-18T07:21:52.119Z,1.88
2022-12-18T07:24:21.535Z,-0.33
2022-12-18T07:26:49.398Z,2.64
2022-12-18T07:29:17.190Z,1.51
2022-12-18T07:31:45.415Z,0.96
2022-12-18T07:34:13.630Z,0.86
2022-12-18T07:36:52.673Z,1.09
2022-12-18T07:39:21.931Z,2.03
2022-12-18T07:42:09.710Z,2.09
2022-12-18T07:44:37.668Z,2.20
2022-12-18T07:47:10.552Z,1.13
2022-12-18T07:49:40.020Z,1.15
2022-12-18T07:52:07.819Z,1.49
2022-12-18T07:54:37.335Z,2.09
2022-12-18T07:57:09.934Z,2.04
2022-12-18T07:59:49.773Z,2.52
2022-12-18T08:02:17.867Z,1.00
2022-12-18T08:04:45.880Z,2.59
2022-12-18T08:07:13.795Z,0.68
2022-12-18T08:09:43.123Z,3.10
2022-12-18T08:12:11.024Z,1.53
2022-12-18T08:14:38.962Z,2.81
2022-12-18T08:17:06.876Z,1.83
2022-12-18T08:19:34.695Z,3.56
2022-12-18T08:22:02.549Z,2.97
2022-12-18T08:24:30.609Z,1.68
2022-12-18T08:27:27.728Z,3.59
2022-12-18T08:29:47.849Z,4.28
2022-12-18T08:32:15.848Z,5.68
2022-12-18T08:34:43.826Z,6.97
2022-12-18T08:37:11.674Z,7.33
2022-12-18T08:39:39.474Z,7.63
2022-12-18T08:42:34.552Z,8.01
2022-12-18T08:45:02.326Z,10.14
2022-12-18T08:47:30.097Z,9.75
2022-12-18T08:49:57.962Z,10.05
2022-12-18T08:53:10.385Z,11.17
2022-12-18T08:55:38.239Z,11.14
2022-12-18T08:58:12.392Z,11.42
2022-12-18T09:00:40.495Z,10.00
2022-12-18T09:03:13.241Z,12.15
2022-12-18T09:05:41.230Z,11.86
2022-12-18T09:08:09.112Z,12.03
2022-12-18T09:10:43.468Z,11.10
2022-12-18T09:13:13.848Z,12.21
2022-12-18T09:15:43.889Z,11.81
2022-12-18T09:18:11.873Z,13.13
2022-12-18T09:20:39.943Z,11.67
2022-12-18T09:23:07.873Z,13.22
2022-12-18T09:25:36.987Z,12.77
2022-12-18T09:28:05.136Z,11.90
2022-12-18T09:30:35.612Z,11.24
2022-12-18T09:33:04.649Z,13.84
2022-12-18T09:35:35.003Z,12.70
2022-12-18T09:38:03.742Z,14.35
2022-12-18T09:40:37.440Z,13.91
2022-12-18T09:43:08.738Z,14.66
2022-12-18T09:45:42.275Z,14.46
2022-12-18T09:48:11.174Z,13.53
2022-12-18T09:50:40.406Z,15.72
2022-12-18T09:53:10.255Z,15.41
2022-12-18T09:55:40.493Z,13.12
2022-12-18T09:58:15.562Z,12.51
2022-12-18T10:00:44.858Z,13.13
2022-12-18T10:03:14.704Z,14.23
2022-12-18T10:05:45.499Z,14.29
2022-12-18T10:08:15.417Z,13.01
2022-12-18T10:10:48.006Z,13.55
2022-12-18T10:13:24.327Z,11.32
2022-12-18T10:16:00.592Z,12.57
2022-12-18T10:18:35.896Z,12.70
2022-12-18T10:21:05.956Z,12.45
2022-12-18T10:23:36.242Z,12.49
2022-12-18T10:26:05.214Z,10.40
2022-12-18T10:28:33.711Z,12.80
2022-12-18T10:31:03.277Z,11.15
2022-12-18T10:33:32.875Z,11.57
2022-12-18T10:36:01.081Z,11.23
2022-12-18T10:38:29.783Z,12.52
2022-12-18T10:40:58.838Z,12.10
2022-12-18T10:43:28.102Z,11.77
2022-12-18T10:46:18.172Z,12.85
2022-12-18T10:48:56.660Z,12.03
2022-12-18T10:51:27.088Z,13.63
2022-12-18T10:53:59.039Z,11.89
2022-12-18T10:56:28.363Z,13.56
2022-12-18T10:59:01.335Z,12.25
2022-12-18T11:01:33.576Z,12.59
2022-12-18T11:04:03.091Z,13.38
2022-12-18T11:06:31.195Z,13.48
2022-12-18T11:09:08.004Z,13.23
2022-12-18T11:11:40.629Z,10.45
2022-12-18T11:14:17.455Z,11.69
2022-12-18T11:17:23.787Z,11.88
2022-12-18T11:19:37.562Z,11.34
2022-12-18T11:22:19.139Z,11.07
2022-12-18T11:25:29.504Z,10.92
2022-12-18T11:27:42.919Z,9.47
2022-12-18T11:30:11.216Z,10.39
2022-12-18T11:32:41.122Z,11.18
2022-12-18T11:35:16.964Z,11.31
2022-12-18T11:37:46.245Z,10.78
2022-12-18T11:40:16.508Z,10.52
2022-12-18T11:42:48.012Z,10.73
2022-12-18T11:45:30.031Z,10.42
2022-12-18T11:48:01.974Z,9.48
2022-12-18T11:50:32.230Z,10.43
2022-12-18T11:53:05.488Z,10.27
2022-12-18T11:55:39.298Z,8.82
2022-12-18T11:58:12.281Z,8.67
2022-12-18T12:00:44.408Z,9.57
2022-12-18T12:03:29.913Z,7.89
2022-12-18T12:06:03.444Z,9.87
2022-12-18T12:08:35.925Z,8.43
2022-12-18T12:11:06.326Z,8.82
2022-12-18T12:13:42.933Z,7.26
2022-12-18T12:16:16.731Z,9.22
2022-12-18T12:18:58.909Z,8.13
2022-12-18T12:21:29.201Z,6.97
2022-12-18T12:24:02.609Z,8.07
2022-12-18T12:26:36.366Z,5.40
2022-12-18T12:29:21.111Z,6.79
2022-12-18T12:32:14.715Z,6.00
2022-12-18T12:34:48.007Z,8.59
2022-12-18T12:37:23.029Z,8.34
2022-12-18T12:39:51.034Z,8.42
2022-12-18T12:42:49.125Z,6.29
2022-12-18T12:45:20.547Z,7.40
2022-12-18T12:47:49.064Z,7.28
2022-12-18T12:50:20.001Z,6.48
2022-12-18T12:52:48.938Z,7.28
2022-12-18T12:55:19.626Z,6.47
2022-12-18T12:57:53.757Z,6.73
2022-12-18T13:00:21.842Z,6.67
2022-12-18T13:02:53.213Z,7.83
2022-12-18T13:05:25.092Z,6.01
2022-12-18T13:07:56.448Z,6.42
2022-12-18T13:10:31.024Z,5.77
2022-12-18T13:13:00.706Z,6.42
2022-12-18T13:15:36.860Z,4.06
2022-12-18T13:18:15.777Z,7.18
2022-12-18T13:20:52.432Z,7.22
2022-12-18T13:23:28.847Z,7.54
2022-12-18T13:25:57.211Z,7.54
2022-12-18T13:28:26.818Z,7.23
2022-12-18T13:30:57.431Z,7.06
2022-12-18T13:36:38.611Z,6.40
2022-12-18T13:39:34.114Z,7.88
2022-12-18T13:42:51.305Z,7.91
2022-12-18T13:45:42.168Z,7.25
2022-12-18T13:48:28.560Z,6.34
2022-12-18T13:50:59.852Z,5.59
2022-12-18T13:53:32.161Z,7.52
2022-12-18T13:56:00.601Z,6.23
2022-12-18T13:58:28.503Z,6.61
2022-12-18T14:00:56.628Z,5.68
2022-12-18T14:03:27.811Z,4.79
2022-12-18T14:06:06.972Z,4.66
2022-12-18T14:08:40.171Z,6.61
2022-12-18T14:11:08.718Z,4.99
2022-12-18T14:13:40.937Z,3.97
2022-12-18T14:16:09.402Z,5.64
2022-12-18T14:18:44.959Z,3.97
2022-12-18T14:21:20.496Z,3.47
2022-12-18T14:23:50.105Z,4.38
2022-12-18T14:26:26.369Z,5.02
2022-12-18T14:28:54.952Z,4.02
2022-12-18T14:31:23.223Z,5.32
2022-12-18T14:33:51.875Z,4.93
2022-12-18T14:36:20.751Z,6.03
2022-12-18T14:38:52.553Z,3.25
2022-12-18T14:41:21.162Z,4.90
2022-12-18T14:43:49.960Z,5.13
2022-12-18T14:46:32.631Z,4.62
2022-12-18T14:49:00.639Z,5.19
2022-12-18T14:51:28.667Z,6.33
2022-12-18T14:53:58.715Z,4.47
2022-12-18T14:56:27.593Z,5.65
2022-12-18T14:58:56.812Z,3.93
2022-12-18T15:01:26.862Z,4.48
2022-12-18T15:03:57.720Z,6.43
2022-12-18T15:06:31.581Z,5.24
2022-12-18T15:09:01.567Z,4.15
2022-12-18T15:11:31.047Z,4.72
2022-12-18T15:14:00.388Z,4.29
2022-12-18T15:16:28.805Z,5.67
2022-12-18T15:18:57.170Z,4.24
2022-12-18T15:21:25.277Z,4.99
2022-12-18T15:23:53.522Z,4.18
2022-12-18T15:26:23.592Z,5.51
2022-12-18T15:28:51.889Z,4.77
2022-12-18T15:31:25.026Z,3.54
2022-12-18T15:34:13.595Z,5.50
2022-12-18T15:36:41.600Z,3.00
2022-12-18T15:39:13.031Z,5.90
2022-12-18T15:42:02.478Z,5.11
2022-12-18T15:47:30.975Z,5.20
2022-12-18T15:49:59.055Z,3.31
2022-12-18T15:52:27.719Z,2.64
2022-12-18T15:55:16.042Z,3.70
2022-12-18T15:57:45.302Z,5.24
2022-12-18T16:00:14.919Z,4.20
2022-12-18T16:02:43.892Z,3.73
2022-12-18T16:05:13.683Z,3.29
2022-12-18T16:07:41.541Z,4.19
2022-12-18T16:10:10.066Z,5.62
2022-12-18T16:12:38.345Z,3.94
2022-12-18T16:15:09.453Z,3.83
2022-12-18T16:17:37.675Z,2.48
2022-12-18T16:20:06.205Z,4.39
2022-12-18T16:22:34.022Z,4.96
2022-12-18T16:25:01.893Z,3.73
2022-12-18T16:27:29.601Z,4.73
2022-12-18T16:29:57.416Z,4.30
2022-12-18T16:32:26.671Z,5.08
2022-12-18T16:34:54.559Z,4.48
2022-12-18T16:37:22.388Z,5.42
2022-12-18T16:39:50.287Z,5.76
2022-12-18T16:42:24.058Z,4.81
2022-12-18T16:44:51.877Z,4.84
2022-12-18T16:47:19.879Z,4.91
2022-12-18T16:49:51.817Z,4.55
2022-12-18T16:52:20.005Z,4.80
2022-12-18T16:54:49.094Z,5.20
2022-12-18T16:57:18.678Z,4.59
2022-12-18T16:59:46.930Z,5.23
2022-12-18T17:02:18.063Z,4.79
2022-12-18T17:04:49.414Z,5.54
2022-12-18T17:07:17.669Z,5.55
2022-12-18T17:09:45.502Z,3.13
2022-12-18T17:12:14.648Z,5.24
2022-12-18T17:14:42.419Z,4.86
2022-12-18T17:17:25.898Z,4.79
2022-12-18T17:19:55.600Z,3.23
2022-12-18T17:22:24.787Z,4.40
2022-12-18T17:24:53.600Z,5.57
2022-12-18T17:27:21.613Z,4.92
2022-12-18T17:29:49.531Z,3.16
2022-12-18T17:32:17.710Z,4.96
2022-12-18T17:34:45.849Z,4.17
2022-12-18T17:37:15.644Z,3.72
2022-12-18T17:39:43.811Z,3.33
2022-12-18T17:42:15.250Z,4.14
2022-12-18T17:44:45.736Z,5.32
2022-12-18T17:47:14.137Z,4.02
2022-12-18T17:49:42.068Z,3.62
2022-12-18T17:52:09.981Z,4.20
2022-12-18T17:54:42.518Z,4.78
2022-12-18T17:57:10.777Z,4.04
2022-12-18T17:59:39.641Z,5.29
2022-12-18T18:02:07.740Z,4.37
2022-12-18T18:04:36.621Z,3.78
2022-12-18T18:07:04.490Z,5.13
2022-12-18T18:09:32.752Z,4.63
2022-12-18T18:12:19.621Z,5.04
2022-12-18T18:14:47.613Z,4.70
2022-12-18T18:17:15.439Z,3.79
2022-12-18T18:19:48.628Z,2.49
2022-12-18T18:22:18.031Z,3.85
2022-12-18T18:24:46.796Z,3.70
2022-12-18T18:27:16.389Z,4.45
2022-12-18T18:29:44.769Z,5.08
2022-12-18T18:32:12.613Z,3.78
2022-12-18T18:34:40.570Z,2.63
2022-12-18T18:37:08.372Z,4.37
2022-12-18T18:39:36.314Z,2.68
2022-12-18T18:42:04.183Z,3.56
2022-12-18T18:44:33.373Z,4.77
2022-12-18T18:47:01.325Z,4.89
2022-12-18T18:49:31.898Z,4.07
2022-12-18T18:52:00.255Z,3.64
2022-12-18T18:54:28.190Z,5.00
2022-12-18T18:59:46.053Z,3.88
2022-12-18T19:02:14.375Z,4.82
2022-12-18T19:04:46.740Z,4.89
2022-12-18T19:07:18.509Z,3.70
2022-12-18T19:09:57.758Z,3.98
2022-12-18T19:12:46.684Z,3.51
2022-12-18T19:15:18.456Z,3.56
2022-12-18T19:17:47.571Z,4.70
2022-12-18T19:20:15.963Z,2.29
2022-12-18T19:22:44.772Z,2.77
2022-12-18T19:25:19.861Z,4.03
2022-12-18T19:27:47.657Z,3.85
2022-12-18T19:30:16.978Z,3.17
2022-12-18T19:32:45.182Z,4.33
2022-12-18T19:35:13.756Z,4.34
2022-12-18T19:37:41.756Z,3.21
2022-12-18T19:40:12.575Z,2.44
2022-12-18T19:42:40.670Z,4.68
2022-12-18T19:45:26.783Z,5.05
2022-12-18T19:47:57.508Z,3.83
2022-12-18T19:50:33.328Z,3.91
2022-12-18T19:53:02.231Z,5.05
2022-12-18T19:55:33.460Z,3.06
2022-12-18T19:58:01.220Z,3.97
2022-12-18T20:00:35.265Z,3.89
2022-12-18T20:03:12.866Z,4.53
2022-12-18T20:05:46.342Z,3.43
2022-12-18T20:08:14.130Z,4.03
2022-12-18T20:10:44.754Z,5.19
2022-12-18T20:13:12.618Z,5.23
2022-12-18T20:15:45.462Z,5.32
2022-12-18T20:18:13.481Z,4.40
2022-12-18T20:20:41.347Z,4.67
2022-12-18T20:23:09.675Z,4.05
2022-12-18T20:25:38.968Z,4.36
2022-12-18T20:28:07.137Z,4.79
2022-12-18T20:30:35.187Z,4.99
2022-12-18T20:33:05.125Z,3.35
2022-12-18T20:35:33.356Z,4.52
2022-12-18T20:38:01.496Z,5.49
2022-12-18T20:40:29.998Z,4.55
2022-12-18T20:42:57.839Z,5.46
2022-12-18T20:45:25.528Z,4.51
2022-12-18T20:47:54.951Z,4.44
2022-12-18T20:50:24.129Z,2.79
2022-12-18T20:52:52.039Z,4.00
2022-12-18T20:55:20.555Z,3.16
2022-12-18T20:57:49.678Z,4.13
2022-12-18T21:00:20.040Z,2.75
2022-12-18T21:02:49.336Z,5.59
2022-12-18T21:05:17.653Z,4.39
2022-12-18T21:07:47.261Z,3.77
2022-12-18T21:10:15.876Z,5.62
2022-12-18T21:12:58.724Z,3.21
2022-12-18T21:15:31.452Z,5.30
2022-12-18T21:17:59.736Z,5.00
2022-12-18T21:20:27.938Z,5.35
2022-12-18T21:23:13.262Z,4.86
2022-12-18T21:25:45.677Z,5.87
2022-12-18T21:28:14.787Z,2.80
2022-12-18T21:30:42.737Z,5.80
2022-12-18T21:33:10.583Z,4.64
2022-12-18T21:35:41.312Z,4.62
2022-12-18T21:38:10.530Z,5.77
2022-12-18T21:40:40.111Z,3.81
2022-12-18T21:43:25.946Z,5.19
2022-12-18T21:45:53.879Z,5.22
2022-12-18T21:48:22.209Z,4.58
2022-12-18T21:50:50.473Z,4.38
2022-12-18T21:53:19.695Z,4.42
2022-12-18T21:55:50.488Z,4.35
2022-12-18T21:58:18.635Z,2.31
2022-12-18T22:00:49.427Z,4.67
2022-12-18T22:03:19.351Z,4.80
2022-12-18T22:06:14.170Z,5.77
2022-12-18T22:08:44.161Z,3.94
2022-12-18T22:11:13.729Z,5.33
2022-12-18T22:13:42.414Z,5.33
2022-12-18T22:16:10.738Z,4.68
2022-12-18T22:18:38.833Z,4.44
2022-12-18T22:21:07.102Z,4.92
2022-12-18T22:23:36.247Z,4.49
2022-12-18T22:26:05.665Z,5.45
2022-12-18T22:28:50.921Z,5.69
2022-12-18T22:31:18.909Z,3.63
2022-12-18T22:33:47.175Z,5.10
2022-12-18T22:36:15.251Z,4.96
2022-12-18T22:38:47.682Z,5.84
2022-12-18T22:41:17.850Z,2.73
2022-12-18T22:43:45.917Z,3.53
2022-12-18T22:46:13.892Z,4.74
2022-12-18T22:48:41.625Z,4.71
2022-12-18T22:51:10.354Z,3.47
2022-12-18T22:53:38.250Z,3.60
2022-12-18T22:56:07.175Z,4.51
2022-12-18T22:58:36.392Z,3.96
2022-12-18T23:01:04.497Z,4.19
2022-12-18T23:03:33.449Z,5.18
2022-12-18T23:06:05.942Z,4.05
2022-12-18T23:08:33.966Z,4.10
2022-12-18T23:11:01.938Z,4.75
2022-12-18T23:13:29.757Z,4.99
2022-12-18T23:15:59.047Z,3.74
2022-12-18T23:18:26.876Z,4.45
2022-12-18T23:20:54.580Z,5.42
2022-12-18T23:23:23.887Z,3.48
2022-12-18T23:25:51.724Z,4.78
2022-12-18T23:28:19.698Z,1.93
2022-12-18T23:30:47.518Z,4.25
2022-12-18T23:33:16.670Z,4.30
2022-12-18T23:35:44.628Z,5.42
2022-12-18T23:38:12.494Z,3.62
2022-12-18T23:40:40.323Z,4.86
2022-12-18T23:43:08.177Z,3.80
2022-12-18T23:45:38.759Z,3.61
2022-12-18T23:48:06.685Z,5.39
2022-12-18T23:50:37.361Z,4.31
2022-12-18T23:53:05.900Z,2.78
2022-12-18T23:55:35.197Z,4.29
2022-12-18T23:58:03.084Z,4.75
